createdAt,value
2018-01-29T00:00:43.852Z,8.60
2018-01-29T00:01:43.788Z,8.58
2018-01-29T00:02:43.723Z,8.57
2018-01-29T00:03:43.661Z,8.60
2018-01-29T00:04:43.594Z,8.54
2018-01-29T00:05:43.531Z,8.55
2018-01-29T00:06:43.470Z,8.54
2018-01-29T00:07:43.406Z,8.57
2018-01-29T00:08:43.337Z,8.57
2018-01-29T00:09:43.277Z,8.53
2018-01-29T00:10:43.210Z,8.53
2018-01-29T00:11:43.146Z,8.54
2018-01-29T00:12:43.082Z,8.54
2018-01-29T00:13:43.016Z,8.57
2018-01-29T00:14:42.953Z,8.55
2018-01-29T00:15:42.889Z,8.54
2018-01-29T00:16:42.825Z,8.50
2018-01-29T00:17:42.760Z,8.57
2018-01-29T00:18:42.696Z,8.54
2018-01-29T00:19:42.634Z,8.47
2018-01-29T00:20:42.566Z,8.48
2018-01-29T00:21:42.503Z,8.50
2018-01-29T00:22:42.439Z,8.53
2018-01-29T00:23:42.374Z,8.57
2018-01-29T00:24:42.309Z,8.48
2018-01-29T00:25:42.245Z,8.53
2018-01-29T00:26:42.182Z,8.48
2018-01-29T00:27:42.117Z,8.51
2018-01-29T00:28:42.054Z,8.54
2018-01-29T00:29:41.989Z,8.53
2018-01-29T00:30:41.925Z,8.50
2018-01-29T00:31:41.861Z,8.50
2018-01-29T00:32:41.796Z,8.54
2018-01-29T00:33:41.732Z,8.51
2018-01-29T00:34:41.668Z,8.45
2018-01-29T00:35:41.603Z,8.48
2018-01-29T00:36:41.545Z,8.50
2018-01-29T00:37:41.474Z,8.48
2018-01-29T00:38:41.412Z,8.42
2018-01-29T00:39:41.348Z,8.47
2018-01-29T00:40:41.281Z,8.40
2018-01-29T00:41:41.217Z,8.40
2018-01-29T00:42:41.153Z,8.39
2018-01-29T00:43:41.096Z,8.40
2018-01-29T00:44:41.025Z,8.37
2018-01-29T00:45:40.960Z,8.45
2018-01-29T00:46:40.896Z,8.44
2018-01-29T00:47:40.833Z,8.32
2018-01-29T00:48:40.767Z,8.42
2018-01-29T00:49:40.703Z,8.40
2018-01-29T00:50:40.641Z,8.37
2018-01-29T00:51:40.577Z,8.45
2018-01-29T00:52:40.511Z,8.39
2018-01-29T00:53:40.446Z,8.42
2018-01-29T00:54:40.382Z,8.33
2018-01-29T00:55:40.318Z,8.39
2018-01-29T00:56:40.253Z,8.30
2018-01-29T00:57:40.189Z,8.30
2018-01-29T00:58:40.125Z,8.37
2018-01-29T00:59:40.061Z,8.33
2018-01-29T01:00:39.995Z,8.36
2018-01-29T01:01:39.932Z,8.33
2018-01-29T01:02:39.869Z,8.37
2018-01-29T01:03:39.807Z,8.30
2018-01-29T01:04:39.739Z,8.37
2018-01-29T01:05:39.675Z,8.37
2018-01-29T01:06:39.611Z,8.37
2018-01-29T01:07:39.550Z,8.26
2018-01-29T01:08:39.482Z,8.30
2018-01-29T01:09:39.418Z,8.30
2018-01-29T01:10:39.356Z,8.37
2018-01-29T01:11:39.291Z,8.30
2018-01-29T01:12:39.225Z,8.39
2018-01-29T01:13:39.162Z,8.37
2018-01-29T01:14:39.104Z,8.33
2018-01-29T01:15:39.033Z,8.40
2018-01-29T01:16:38.967Z,8.32
2018-01-29T01:17:38.904Z,8.30
2018-01-29T01:18:38.840Z,8.32
2018-01-29T01:19:38.777Z,8.37
2018-01-29T01:20:38.712Z,8.37
2018-01-29T01:21:38.646Z,8.39
2018-01-29T01:22:38.585Z,8.48
2018-01-29T01:23:38.519Z,8.47
2018-01-29T01:24:38.454Z,8.48
2018-01-29T01:25:38.390Z,8.42
2018-01-29T01:26:38.328Z,8.39
2018-01-29T01:27:38.269Z,8.40
2018-01-29T01:28:38.197Z,8.33
2018-01-29T01:29:38.134Z,8.39
2018-01-29T01:30:38.069Z,8.42
2018-01-29T01:31:38.006Z,8.37
2018-01-29T01:32:37.940Z,8.33
2018-01-29T01:33:37.876Z,8.35
2018-01-29T01:34:37.811Z,8.42
2018-01-29T01:35:37.748Z,8.30
2018-01-29T01:36:37.683Z,8.33
2018-01-29T01:37:37.624Z,8.22
2018-01-29T01:38:37.555Z,8.28
2018-01-29T01:39:37.492Z,8.35
2018-01-29T01:40:37.426Z,8.29
2018-01-29T01:41:37.364Z,8.35
2018-01-29T01:42:37.298Z,8.29
2018-01-29T01:43:37.235Z,8.32
2018-01-29T01:44:37.170Z,8.28
2018-01-29T01:45:37.105Z,8.29
2018-01-29T01:46:37.040Z,8.39
2018-01-29T01:47:36.976Z,8.39
2018-01-29T01:48:36.912Z,8.30
2018-01-29T01:49:36.849Z,8.28
2018-01-29T01:50:36.785Z,8.30
2018-01-29T01:51:36.720Z,8.32
2018-01-29T01:52:36.655Z,8.35
2018-01-29T01:53:36.591Z,8.39
2018-01-29T01:54:36.527Z,8.28
2018-01-29T01:55:36.464Z,8.30
2018-01-29T01:56:36.411Z,8.39
2018-01-29T01:57:36.334Z,8.50
2018-01-29T01:58:36.271Z,8.48
2018-01-29T01:59:36.205Z,8.39
2018-01-29T02:00:36.140Z,8.48
2018-01-29T02:01:36.077Z,8.48
2018-01-29T02:02:36.018Z,8.53
2018-01-29T02:03:35.948Z,8.54
2018-01-29T02:04:35.883Z,8.53
2018-01-29T02:05:35.819Z,8.48
2018-01-29T02:06:35.755Z,8.55
2018-01-29T02:07:35.691Z,8.55
2018-01-29T02:08:35.625Z,8.58
2018-01-29T02:09:35.560Z,8.53
2018-01-29T02:10:35.498Z,8.60
2018-01-29T02:11:35.433Z,8.63
2018-01-29T02:12:35.367Z,8.65
2018-01-29T02:13:35.305Z,8.58
2018-01-29T02:14:35.240Z,8.54
2018-01-29T02:15:35.176Z,8.54
2018-01-29T02:16:35.110Z,8.58
2018-01-29T02:17:35.047Z,8.58
2018-01-29T02:18:34.986Z,8.51
2018-01-29T02:19:34.918Z,8.53
2018-01-29T02:20:34.852Z,8.54
2018-01-29T02:21:34.788Z,8.51
2018-01-29T02:22:34.725Z,8.50
2018-01-29T02:23:34.659Z,8.54
2018-01-29T02:24:34.595Z,8.55
2018-01-29T02:25:34.531Z,8.57
2018-01-29T02:26:34.468Z,8.51
2018-01-29T02:27:34.402Z,8.50
2018-01-29T02:28:34.337Z,8.58
2018-01-29T02:29:34.273Z,8.54
2018-01-29T02:30:34.208Z,8.55
2018-01-29T02:31:34.143Z,8.50
2018-01-29T02:32:34.080Z,8.58
2018-01-29T02:33:34.016Z,8.54
2018-01-29T02:34:33.952Z,8.53
2018-01-29T02:35:33.889Z,8.55
2018-01-29T02:36:33.822Z,8.54
2018-01-29T02:37:33.758Z,8.54
2018-01-29T02:38:33.694Z,8.47
2018-01-29T02:39:33.630Z,8.57
2018-01-29T02:40:33.615Z,8.48
2018-01-29T02:41:33.504Z,8.48
2018-01-29T02:42:33.436Z,8.48
2018-01-29T02:43:33.373Z,8.50
2018-01-29T02:44:33.307Z,8.44
2018-01-29T02:45:33.244Z,8.44
2018-01-29T02:46:33.179Z,8.45
2018-01-29T02:47:33.117Z,8.50
2018-01-29T02:48:33.050Z,8.45
2018-01-29T02:49:32.986Z,8.47
2018-01-29T02:50:32.923Z,8.45
2018-01-29T02:51:32.857Z,8.48
2018-01-29T02:52:32.793Z,8.47
2018-01-29T02:53:32.729Z,8.51
2018-01-29T02:54:32.664Z,8.44
2018-01-29T02:55:32.599Z,8.47
2018-01-29T02:56:32.535Z,8.47
2018-01-29T02:57:32.472Z,8.39
2018-01-29T02:58:32.406Z,8.42
2018-01-29T02:59:32.342Z,8.40
2018-01-29T03:00:32.277Z,8.45
2018-01-29T03:01:32.212Z,8.30
2018-01-29T03:02:32.149Z,8.35
2018-01-29T03:03:32.083Z,8.39
2018-01-29T03:04:32.018Z,8.29
2018-01-29T03:05:31.954Z,8.29
2018-01-29T03:06:31.890Z,8.22
2018-01-29T03:07:31.827Z,8.33
2018-01-29T03:08:31.765Z,8.32
2018-01-29T03:09:31.695Z,8.35
2018-01-29T03:10:31.632Z,8.26
2018-01-29T03:11:31.568Z,8.32
2018-01-29T03:12:31.503Z,8.26
2018-01-29T03:13:31.438Z,8.21
2018-01-29T03:14:31.374Z,8.18
2018-01-29T03:15:31.310Z,8.20
2018-01-29T03:16:31.244Z,8.17
2018-01-29T03:17:31.180Z,8.20
2018-01-29T03:18:31.116Z,8.17
2018-01-29T03:19:31.051Z,8.22
2018-01-29T03:20:30.986Z,8.17
2018-01-29T03:21:30.922Z,8.17
2018-01-29T03:22:30.858Z,8.10
2018-01-29T03:23:30.793Z,8.18
2018-01-29T03:24:30.728Z,8.07
2018-01-29T03:25:30.663Z,8.17
2018-01-29T03:26:30.599Z,8.07
2018-01-29T03:27:30.534Z,8.15
2018-01-29T03:28:30.469Z,8.07
2018-01-29T03:29:30.405Z,8.04
2018-01-29T03:30:30.341Z,8.04
2018-01-29T03:31:30.277Z,8.07
2018-01-29T03:32:30.211Z,8.18
2018-01-29T03:33:30.146Z,8.04
2018-01-29T03:34:30.082Z,8.07
2018-01-29T03:35:30.026Z,8.03
2018-01-29T03:36:29.952Z,8.11
2018-01-29T03:37:29.889Z,8.07
2018-01-29T03:38:29.827Z,8.10
2018-01-29T03:39:29.760Z,8.11
2018-01-29T03:40:29.701Z,8.15
2018-01-29T03:41:29.628Z,8.04
2018-01-29T03:42:29.565Z,8.15
2018-01-29T03:43:29.509Z,8.15
2018-01-29T03:44:29.436Z,8.15
2018-01-29T03:45:29.371Z,8.08
2018-01-29T03:46:29.307Z,8.08
2018-01-29T03:47:29.243Z,7.97
2018-01-29T03:48:29.176Z,8.10
2018-01-29T03:49:29.112Z,8.02
2018-01-29T03:50:29.048Z,8.14
2018-01-29T03:51:28.984Z,8.02
2018-01-29T03:52:28.918Z,8.03
2018-01-29T03:53:28.854Z,8.14
2018-01-29T03:54:28.790Z,8.10
2018-01-29T03:55:28.724Z,8.04
2018-01-29T03:56:28.669Z,8.11
2018-01-29T03:57:28.596Z,8.12
2018-01-29T03:58:28.531Z,8.11
2018-01-29T03:59:28.468Z,8.10
2018-01-29T04:00:28.401Z,8.10
2018-01-29T04:01:28.338Z,8.11
2018-01-29T04:02:28.273Z,8.10
2018-01-29T04:03:28.209Z,8.08
2018-01-29T04:04:28.143Z,8.15
2018-01-29T04:05:28.079Z,8.18
2018-01-29T04:06:28.015Z,8.15
2018-01-29T04:07:27.952Z,8.14
2018-01-29T04:08:27.884Z,8.22
2018-01-29T04:09:27.820Z,8.15
2018-01-29T04:10:27.755Z,8.18
2018-01-29T04:11:27.690Z,8.18
2018-01-29T04:12:27.626Z,8.17
2018-01-29T04:13:27.561Z,8.18
2018-01-29T04:14:27.496Z,8.18
2018-01-29T04:15:27.432Z,8.22
2018-01-29T04:16:27.367Z,8.08
2018-01-29T04:17:27.302Z,8.15
2018-01-29T04:18:27.238Z,8.20
2018-01-29T04:19:27.174Z,8.20
2018-01-29T04:20:27.109Z,8.15
2018-01-29T04:21:27.043Z,8.20
2018-01-29T04:22:26.980Z,8.21
2018-01-29T04:23:26.915Z,8.17
2018-01-29T04:24:26.853Z,8.18
2018-01-29T04:25:26.786Z,8.11
2018-01-29T04:26:26.721Z,8.10
2018-01-29T04:27:26.656Z,8.11
2018-01-29T04:28:26.591Z,8.11
2018-01-29T04:29:26.528Z,8.11
2018-01-29T04:30:26.469Z,8.17
2018-01-29T04:31:26.397Z,8.12
2018-01-29T04:32:26.336Z,8.10
2018-01-29T04:33:26.269Z,8.10
2018-01-29T04:34:26.203Z,8.20
2018-01-29T04:35:26.140Z,8.08
2018-01-29T04:36:26.073Z,8.07
2018-01-29T04:37:26.011Z,8.15
2018-01-29T04:38:25.950Z,8.11
2018-01-29T04:39:25.881Z,8.03
2018-01-29T04:40:25.814Z,8.08
2018-01-29T04:41:25.750Z,8.04
2018-01-29T04:42:25.688Z,8.11
2018-01-29T04:43:25.621Z,8.11
2018-01-29T04:44:25.560Z,8.08
2018-01-29T04:45:25.492Z,8.08
2018-01-29T04:46:25.428Z,8.04
2018-01-29T04:47:25.365Z,8.00
2018-01-29T04:48:25.300Z,8.15
2018-01-29T04:49:25.233Z,8.03
2018-01-29T04:50:25.169Z,8.15
2018-01-29T04:51:25.103Z,8.10
2018-01-29T04:52:25.042Z,8.17
2018-01-29T04:53:24.974Z,8.07
2018-01-29T04:54:24.911Z,8.11
2018-01-29T04:55:24.844Z,8.15
2018-01-29T04:56:24.782Z,8.07
2018-01-29T04:57:24.715Z,8.07
2018-01-29T04:58:24.654Z,8.15
2018-01-29T04:59:24.586Z,8.10
2018-01-29T05:00:24.524Z,8.08
2018-01-29T05:01:24.456Z,8.18
2018-01-29T05:02:24.393Z,8.18
2018-01-29T05:03:24.330Z,8.12
2018-01-29T05:04:24.262Z,8.18
2018-01-29T05:05:24.197Z,8.18
2018-01-29T05:06:24.134Z,8.10
2018-01-29T05:07:24.070Z,8.10
2018-01-29T05:08:24.003Z,8.22
2018-01-29T05:09:23.939Z,8.15
2018-01-29T05:10:23.874Z,8.21
2018-01-29T05:11:23.867Z,8.20
2018-01-29T05:12:23.745Z,8.15
2018-01-29T05:13:23.683Z,8.17
2018-01-29T05:14:23.615Z,8.14
2018-01-29T05:15:23.551Z,8.21
2018-01-29T05:16:23.485Z,8.20
2018-01-29T05:17:23.422Z,8.22
2018-01-29T05:18:23.357Z,8.11
2018-01-29T05:19:23.291Z,8.18
2018-01-29T05:20:23.226Z,8.14
2018-01-29T05:21:23.162Z,8.20
2018-01-29T05:22:23.097Z,8.22
2018-01-29T05:23:23.033Z,8.20
2018-01-29T05:24:22.968Z,8.18
2018-01-29T05:25:22.905Z,8.21
2018-01-29T05:26:22.844Z,8.12
2018-01-29T05:27:22.774Z,8.17
2018-01-29T05:28:22.709Z,8.20
2018-01-29T05:29:22.644Z,8.18
2018-01-29T05:30:22.582Z,8.14
2018-01-29T05:31:22.517Z,8.22
2018-01-29T05:32:22.450Z,8.17
2018-01-29T05:33:22.385Z,8.18
2018-01-29T05:34:22.320Z,8.15
2018-01-29T05:35:22.257Z,8.20
2018-01-29T05:36:22.195Z,8.12
2018-01-29T05:37:22.129Z,8.11
2018-01-29T05:38:22.062Z,8.14
2018-01-29T05:39:21.999Z,8.12
2018-01-29T05:40:21.932Z,8.12
2018-01-29T05:41:21.868Z,8.08
2018-01-29T05:42:21.805Z,8.11
2018-01-29T05:43:21.738Z,8.08
2018-01-29T05:44:21.674Z,8.04
2018-01-29T05:45:21.610Z,8.10
2018-01-29T05:46:21.548Z,8.11
2018-01-29T05:47:21.482Z,8.07
2018-01-29T05:48:21.416Z,8.15
2018-01-29T05:49:21.352Z,8.20
2018-01-29T05:50:21.287Z,8.21
2018-01-29T05:51:21.222Z,8.11
2018-01-29T05:52:21.157Z,8.14
2018-01-29T05:53:21.093Z,8.18
2018-01-29T05:54:21.028Z,8.15
2018-01-29T05:55:20.964Z,8.15
2018-01-29T05:56:20.898Z,8.12
2018-01-29T05:57:20.834Z,8.17
2018-01-29T05:58:20.770Z,8.20
2018-01-29T05:59:20.705Z,8.08
2018-01-29T06:00:20.638Z,8.20
2018-01-29T06:01:20.575Z,8.15
2018-01-29T06:02:20.512Z,8.18
2018-01-29T06:03:20.446Z,8.10
2018-01-29T06:04:20.382Z,8.14
2018-01-29T06:05:20.316Z,8.07
2018-01-29T06:06:20.253Z,8.12
2018-01-29T06:07:20.187Z,8.17
2018-01-29T06:08:20.122Z,8.22
2018-01-29T06:09:20.058Z,8.20
2018-01-29T06:10:19.992Z,8.14
2018-01-29T06:11:19.929Z,8.11
2018-01-29T06:12:19.862Z,8.11
2018-01-29T06:13:19.800Z,8.20
2018-01-29T06:14:19.734Z,8.20
2018-01-29T06:15:19.670Z,8.15
2018-01-29T06:16:19.604Z,8.21
2018-01-29T06:17:19.540Z,8.20
2018-01-29T06:18:19.492Z,8.14
2018-01-29T06:19:19.411Z,8.14
2018-01-29T06:20:19.346Z,8.18
2018-01-29T06:21:19.281Z,8.07
2018-01-29T06:22:19.216Z,8.15
2018-01-29T06:23:19.153Z,8.20
2018-01-29T06:24:19.090Z,8.18
2018-01-29T06:25:19.022Z,8.18
2018-01-29T06:26:18.958Z,8.22
2018-01-29T06:27:18.894Z,8.17
2018-01-29T06:28:18.828Z,8.22
2018-01-29T06:29:18.764Z,8.15
2018-01-29T06:30:18.700Z,8.17
2018-01-29T06:31:18.634Z,8.22
2018-01-29T06:32:18.573Z,8.18
2018-01-29T06:33:18.506Z,8.17
2018-01-29T06:34:18.444Z,8.20
2018-01-29T06:35:18.376Z,8.18
2018-01-29T06:36:18.328Z,8.22
2018-01-29T06:37:18.247Z,8.14
2018-01-29T06:38:18.183Z,8.15
2018-01-29T06:39:18.119Z,8.15
2018-01-29T06:40:18.052Z,8.22
2018-01-29T06:41:17.988Z,8.26
2018-01-29T06:42:17.923Z,8.14
2018-01-29T06:43:17.885Z,8.21
2018-01-29T06:44:17.794Z,8.17
2018-01-29T06:45:17.730Z,8.21
2018-01-29T06:46:17.665Z,8.25
2018-01-29T06:47:17.600Z,8.20
2018-01-29T06:48:17.537Z,8.21
2018-01-29T06:49:17.470Z,8.17
2018-01-29T06:50:17.413Z,8.21
2018-01-29T06:51:17.341Z,8.15
2018-01-29T06:52:17.276Z,8.21
2018-01-29T06:53:17.210Z,8.22
2018-01-29T06:54:17.149Z,8.22
2018-01-29T06:55:17.091Z,8.14
2018-01-29T06:56:17.016Z,8.22
2018-01-29T06:57:16.954Z,8.11
2018-01-29T06:58:16.920Z,8.22
2018-01-29T06:59:16.825Z,8.11
2018-01-29T07:00:16.756Z,8.20
2018-01-29T07:01:16.694Z,8.18
2018-01-29T07:02:16.629Z,8.22
2018-01-29T07:03:16.564Z,8.21
2018-01-29T07:04:16.499Z,8.17
2018-01-29T07:05:16.435Z,8.14
2018-01-29T07:06:16.369Z,8.14
2018-01-29T07:07:16.312Z,8.20
2018-01-29T07:08:16.240Z,8.25
2018-01-29T07:09:16.175Z,8.10
2018-01-29T07:10:16.112Z,8.15
2018-01-29T07:11:16.048Z,8.21
2018-01-29T07:12:15.983Z,8.17
2018-01-29T07:13:15.916Z,8.21
2018-01-29T07:14:15.852Z,8.25
2018-01-29T07:15:15.788Z,8.20
2018-01-29T07:16:15.723Z,8.32
2018-01-29T07:17:15.661Z,8.20
2018-01-29T07:18:15.593Z,8.25
2018-01-29T07:19:15.531Z,8.20
2018-01-29T07:20:15.464Z,8.20
2018-01-29T07:21:15.402Z,8.17
2018-01-29T07:22:15.350Z,8.18
2018-01-29T07:23:15.271Z,8.29
2018-01-29T07:24:15.203Z,8.26
2018-01-29T07:25:15.140Z,8.21
2018-01-29T07:26:15.075Z,8.25
2018-01-29T07:27:15.011Z,8.21
2018-01-29T07:28:14.945Z,8.21
2018-01-29T07:29:14.881Z,8.21
2018-01-29T07:30:14.816Z,8.21
2018-01-29T07:31:14.752Z,8.17
2018-01-29T07:32:14.688Z,8.28
2018-01-29T07:33:14.622Z,8.25
2018-01-29T07:34:14.558Z,8.28
2018-01-29T07:35:14.493Z,8.20
2018-01-29T07:36:14.429Z,8.17
2018-01-29T07:37:14.363Z,8.22
2018-01-29T07:38:14.301Z,8.11
2018-01-29T07:39:14.235Z,8.17
2018-01-29T07:40:14.175Z,8.25
2018-01-29T07:41:14.105Z,8.26
2018-01-29T07:42:14.103Z,8.15
2018-01-29T07:43:13.996Z,8.25
2018-01-29T07:44:13.912Z,8.18
2018-01-29T07:45:13.848Z,8.15
2018-01-29T07:46:13.784Z,8.11
2018-01-29T07:47:13.718Z,8.20
2018-01-29T07:48:13.652Z,8.14
2018-01-29T07:49:13.589Z,8.17
2018-01-29T07:50:13.524Z,8.17
2018-01-29T07:51:13.460Z,8.20
2018-01-29T07:52:13.396Z,8.26
2018-01-29T07:53:13.330Z,8.20
2018-01-29T07:54:13.266Z,8.22
2018-01-29T07:55:13.202Z,8.20
2018-01-29T07:56:13.136Z,8.32
2018-01-29T07:57:13.072Z,8.37
2018-01-29T07:58:13.008Z,8.22
2018-01-29T07:59:12.943Z,8.28
2018-01-29T08:00:12.880Z,8.32
2018-01-29T08:01:12.814Z,8.28
2018-01-29T08:02:12.749Z,8.30
2018-01-29T08:03:12.685Z,8.25
2018-01-29T08:04:12.619Z,8.29
2018-01-29T08:05:12.555Z,8.26
2018-01-29T08:06:12.490Z,8.26
2018-01-29T08:07:12.425Z,8.30
2018-01-29T08:08:12.364Z,8.30
2018-01-29T08:09:12.296Z,8.26
2018-01-29T08:10:12.234Z,8.35
2018-01-29T08:11:12.168Z,8.29
2018-01-29T08:12:12.103Z,8.32
2018-01-29T08:13:12.038Z,8.30
2018-01-29T08:14:11.974Z,8.39
2018-01-29T08:15:11.910Z,8.42
2018-01-29T08:16:11.845Z,8.39
2018-01-29T08:17:11.781Z,8.40
2018-01-29T08:18:11.717Z,8.44
2018-01-29T08:19:11.652Z,8.47
2018-01-29T08:20:11.587Z,8.58
2018-01-29T08:21:11.522Z,8.54
2018-01-29T08:22:11.459Z,8.53
2018-01-29T08:23:11.395Z,8.63
2018-01-29T08:24:11.329Z,8.58
2018-01-29T08:25:11.265Z,8.62
2018-01-29T08:26:11.201Z,8.66
2018-01-29T08:27:11.138Z,8.76
2018-01-29T08:28:11.073Z,8.62
2018-01-29T08:29:11.008Z,8.69
2018-01-29T08:30:10.944Z,8.68
2018-01-29T08:31:10.880Z,8.76
2018-01-29T08:32:10.815Z,8.79
2018-01-29T08:33:10.784Z,8.87
2018-01-29T08:34:10.687Z,8.94
2018-01-29T08:35:10.624Z,8.87
2018-01-29T08:36:10.619Z,8.88
2018-01-29T08:37:10.495Z,8.96
2018-01-29T08:38:10.431Z,8.99
2018-01-29T08:39:10.367Z,8.93
2018-01-29T08:40:10.302Z,8.88
2018-01-29T08:41:10.239Z,8.94
2018-01-29T08:42:10.174Z,8.97
2018-01-29T08:43:10.111Z,8.90
2018-01-29T08:44:10.046Z,8.97
2018-01-29T08:45:09.983Z,8.93
2018-01-29T08:46:09.919Z,8.94
2018-01-29T08:47:09.856Z,9.04
2018-01-29T08:48:09.791Z,9.09
2018-01-29T08:49:09.727Z,8.99
2018-01-29T08:50:09.663Z,9.12
2018-01-29T08:51:09.601Z,9.09
2018-01-29T08:52:09.535Z,9.09
2018-01-29T08:53:09.471Z,9.15
2018-01-29T08:54:09.408Z,9.06
2018-01-29T08:55:09.345Z,9.10
2018-01-29T08:56:09.279Z,9.02
2018-01-29T08:57:09.216Z,9.09
2018-01-29T08:58:09.153Z,9.09
2018-01-29T08:59:09.089Z,9.06
2018-01-29T09:00:09.024Z,9.06
2018-01-29T09:01:08.961Z,9.09
2018-01-29T09:02:08.897Z,9.04
2018-01-29T09:03:08.834Z,9.12
2018-01-29T09:04:08.770Z,9.13
2018-01-29T09:05:08.706Z,9.12
2018-01-29T09:06:08.643Z,9.09
2018-01-29T09:07:08.580Z,9.09
2018-01-29T09:08:08.517Z,9.06
2018-01-29T09:09:08.451Z,9.04
2018-01-29T09:10:08.387Z,9.23
2018-01-29T09:11:08.325Z,9.16
2018-01-29T09:12:08.264Z,9.15
2018-01-29T09:13:08.196Z,9.20
2018-01-29T09:14:08.133Z,9.05
2018-01-29T09:15:08.070Z,9.20
2018-01-29T09:16:08.010Z,9.21
2018-01-29T09:17:07.960Z,9.23
2018-01-29T09:18:07.879Z,9.24
2018-01-29T09:19:07.817Z,9.23
2018-01-29T09:20:07.751Z,9.24
2018-01-29T09:21:07.687Z,9.23
2018-01-29T09:22:07.624Z,9.23
2018-01-29T09:23:07.561Z,9.28
2018-01-29T09:24:07.497Z,9.27
2018-01-29T09:25:07.435Z,9.35
2018-01-29T09:26:07.370Z,9.38
2018-01-29T09:27:07.307Z,9.35
2018-01-29T09:28:07.243Z,9.40
2018-01-29T09:29:07.180Z,9.46
2018-01-29T09:30:07.116Z,9.46
2018-01-29T09:31:07.054Z,9.48
2018-01-29T09:32:06.989Z,9.48
2018-01-29T09:33:06.927Z,9.43
2018-01-29T09:34:06.863Z,9.48
2018-01-29T09:35:06.799Z,9.57
2018-01-29T09:36:06.736Z,9.53
2018-01-29T09:37:06.672Z,9.63
2018-01-29T09:38:06.612Z,9.68
2018-01-29T09:39:06.546Z,9.68
2018-01-29T09:40:06.482Z,9.68
2018-01-29T09:41:06.425Z,9.60
2018-01-29T09:42:06.355Z,9.70
2018-01-29T09:43:06.294Z,9.71
2018-01-29T09:44:06.228Z,9.71
2018-01-29T09:45:06.167Z,9.79
2018-01-29T09:46:06.104Z,9.81
2018-01-29T09:47:06.039Z,9.85
2018-01-29T09:48:05.976Z,9.89
2018-01-29T09:49:05.914Z,9.76
2018-01-29T09:50:05.852Z,9.97
2018-01-29T09:51:05.787Z,9.97
2018-01-29T09:52:05.723Z,9.94
2018-01-29T09:53:05.700Z,9.96
2018-01-29T09:54:05.597Z,9.97
2018-01-29T09:55:05.535Z,9.97
2018-01-29T09:56:05.471Z,10.01
2018-01-29T09:57:05.410Z,9.99
2018-01-29T09:58:05.346Z,10.06
2018-01-29T09:59:05.282Z,10.01
2018-01-29T10:00:05.219Z,10.03
2018-01-29T10:01:05.158Z,10.10
2018-01-29T10:02:05.094Z,10.01
2018-01-29T10:03:05.031Z,10.06
2018-01-29T10:04:04.967Z,9.96
2018-01-29T10:05:04.905Z,9.97
2018-01-29T10:06:04.839Z,9.97
2018-01-29T10:07:04.778Z,9.91
2018-01-29T10:08:04.715Z,9.93
2018-01-29T10:09:04.652Z,10.01
2018-01-29T10:10:04.591Z,10.00
2018-01-29T10:11:04.526Z,10.06
2018-01-29T10:12:04.463Z,10.19
2018-01-29T10:13:04.401Z,10.12
2018-01-29T10:14:04.339Z,10.09
2018-01-29T10:15:04.276Z,10.03
2018-01-29T10:16:04.212Z,9.99
2018-01-29T10:17:04.150Z,10.04
2018-01-29T10:18:04.093Z,10.03
2018-01-29T10:19:04.024Z,10.04
2018-01-29T10:20:03.961Z,10.06
2018-01-29T10:21:03.898Z,10.00
2018-01-29T10:22:03.836Z,9.91
2018-01-29T10:23:03.776Z,9.99
2018-01-29T10:24:03.711Z,10.03
2018-01-29T10:25:03.647Z,10.03
2018-01-29T10:26:03.585Z,10.10
2018-01-29T10:27:03.524Z,9.99
2018-01-29T10:28:03.460Z,9.97
2018-01-29T10:29:03.396Z,9.94
2018-01-29T10:30:03.334Z,9.96
2018-01-29T10:31:03.272Z,10.01
2018-01-29T10:32:03.208Z,9.91
2018-01-29T10:33:03.146Z,9.96
2018-01-29T10:34:03.084Z,9.88
2018-01-29T10:35:03.021Z,9.99
2018-01-29T10:36:02.957Z,9.99
2018-01-29T10:37:02.905Z,9.94
2018-01-29T10:38:02.831Z,9.89
2018-01-29T10:39:02.769Z,9.93
2018-01-29T10:40:02.707Z,9.91
2018-01-29T10:41:02.644Z,9.94
2018-01-29T10:42:02.584Z,9.93
2018-01-29T10:43:02.596Z,9.93
2018-01-29T10:44:02.454Z,9.93
2018-01-29T10:45:02.393Z,10.00
2018-01-29T10:46:02.330Z,9.97
2018-01-29T10:47:02.268Z,9.91
2018-01-29T10:48:02.204Z,9.94
2018-01-29T10:49:02.141Z,9.96
2018-01-29T10:50:02.080Z,9.99
2018-01-29T10:51:02.016Z,9.94
2018-01-29T10:52:01.953Z,9.94
2018-01-29T10:53:01.891Z,10.07
2018-01-29T10:54:01.827Z,10.03
2018-01-29T10:55:01.764Z,10.01
2018-01-29T10:56:01.701Z,10.06
2018-01-29T10:57:01.638Z,10.00
2018-01-29T10:58:01.576Z,10.15
2018-01-29T10:59:01.519Z,10.17
2018-01-29T11:00:01.449Z,10.22
2018-01-29T11:01:01.388Z,10.24
2018-01-29T11:02:01.324Z,10.18
2018-01-29T11:03:01.262Z,10.28
2018-01-29T11:04:01.199Z,10.33
2018-01-29T11:05:01.136Z,10.39
2018-01-29T11:06:01.074Z,10.39
2018-01-29T11:07:01.011Z,10.43
2018-01-29T11:08:00.947Z,10.47
2018-01-29T11:09:00.885Z,10.55
2018-01-29T11:10:00.823Z,10.58
2018-01-29T11:11:00.762Z,10.55
2018-01-29T11:12:00.698Z,10.60
2018-01-29T11:13:00.636Z,10.71
2018-01-29T11:14:00.573Z,10.71
2018-01-29T11:15:00.510Z,10.86
2018-01-29T11:16:00.447Z,10.84
2018-01-29T11:17:00.386Z,11.06
2018-01-29T11:18:00.324Z,10.98
2018-01-29T11:19:00.261Z,11.24
2018-01-29T11:20:00.198Z,10.99
2018-01-29T11:21:00.136Z,11.03
2018-01-29T11:22:00.074Z,11.09
2018-01-29T11:23:00.013Z,11.03
2018-01-29T11:23:59.949Z,11.01
2018-01-29T11:24:59.889Z,11.01
2018-01-29T11:25:59.826Z,10.96
2018-01-29T11:26:59.767Z,11.01
2018-01-29T11:27:59.706Z,11.03
2018-01-29T11:28:59.639Z,10.99
2018-01-29T11:29:59.577Z,10.91
2018-01-29T11:30:59.515Z,10.81
2018-01-29T11:31:59.452Z,10.89
2018-01-29T11:32:59.391Z,10.89
2018-01-29T11:33:59.333Z,10.81
2018-01-29T11:34:59.269Z,10.73
2018-01-29T11:35:59.214Z,10.73
2018-01-29T11:36:59.143Z,10.78
2018-01-29T11:37:59.083Z,10.74
2018-01-29T11:38:59.025Z,10.78
2018-01-29T11:39:58.957Z,10.71
2018-01-29T11:40:58.895Z,10.78
2018-01-29T11:41:58.832Z,10.68
2018-01-29T11:42:58.771Z,10.73
2018-01-29T11:43:58.709Z,10.68
2018-01-29T11:44:58.662Z,10.70
2018-01-29T11:45:58.585Z,10.74
2018-01-29T11:46:58.522Z,10.68
2018-01-29T11:47:58.459Z,10.63
2018-01-29T11:48:58.402Z,10.59
2018-01-29T11:49:58.335Z,10.70
2018-01-29T11:50:58.273Z,10.59
2018-01-29T11:51:58.216Z,10.62
2018-01-29T11:52:58.149Z,10.68
2018-01-29T11:53:58.086Z,10.58
2018-01-29T11:54:58.024Z,10.62
2018-01-29T11:55:57.966Z,10.56
2018-01-29T11:56:57.902Z,10.62
2018-01-29T11:57:57.838Z,10.59
2018-01-29T11:58:57.777Z,10.59
2018-01-29T11:59:57.728Z,10.62
2018-01-29T12:00:57.652Z,10.58
2018-01-29T12:01:57.589Z,10.56
2018-01-29T12:02:57.526Z,10.63
2018-01-29T12:03:57.463Z,10.68
2018-01-29T12:04:57.402Z,10.63
2018-01-29T12:05:57.341Z,10.60
2018-01-29T12:06:57.278Z,10.59
2018-01-29T12:07:57.214Z,10.66
2018-01-29T12:08:57.153Z,10.71
2018-01-29T12:09:57.090Z,10.66
2018-01-29T12:10:57.029Z,10.73
2018-01-29T12:11:56.963Z,10.81
2018-01-29T12:12:56.902Z,10.86
2018-01-29T12:13:56.840Z,10.94
2018-01-29T12:14:56.778Z,10.92
2018-01-29T12:15:56.715Z,11.01
2018-01-29T12:16:56.653Z,11.02
2018-01-29T12:17:56.596Z,11.19
2018-01-29T12:18:56.533Z,11.19
2018-01-29T12:19:56.466Z,11.32
2018-01-29T12:20:56.405Z,11.32
2018-01-29T12:21:56.342Z,11.34
2018-01-29T12:22:56.281Z,11.43
2018-01-29T12:23:56.237Z,11.43
2018-01-29T12:24:56.155Z,11.61
2018-01-29T12:25:56.095Z,11.46
2018-01-29T12:26:56.033Z,11.46
2018-01-29T12:27:55.971Z,11.53
2018-01-29T12:28:55.910Z,11.53
2018-01-29T12:29:55.847Z,11.57
2018-01-29T12:30:55.786Z,11.52
2018-01-29T12:31:55.723Z,11.47
2018-01-29T12:32:55.661Z,11.43
2018-01-29T12:33:55.600Z,11.39
2018-01-29T12:34:55.539Z,11.27
2018-01-29T12:35:55.478Z,11.27
2018-01-29T12:36:55.415Z,11.43
2018-01-29T12:37:55.353Z,11.34
2018-01-29T12:38:55.292Z,11.31
2018-01-29T12:39:55.230Z,11.32
2018-01-29T12:40:55.171Z,11.25
2018-01-29T12:41:55.109Z,11.21
2018-01-29T12:42:55.045Z,11.25
2018-01-29T12:43:54.984Z,11.24
2018-01-29T12:44:54.922Z,11.21
2018-01-29T12:45:54.860Z,11.27
2018-01-29T12:46:54.799Z,11.24
2018-01-29T12:47:54.737Z,11.14
2018-01-29T12:48:54.676Z,11.21
2018-01-29T12:49:54.616Z,11.20
2018-01-29T12:50:54.552Z,11.11
2018-01-29T12:51:54.491Z,11.16
2018-01-29T12:52:54.430Z,11.24
2018-01-29T12:53:54.369Z,11.25
2018-01-29T12:54:54.307Z,11.21
2018-01-29T12:55:54.244Z,11.03
2018-01-29T12:56:54.183Z,11.03
2018-01-29T12:57:54.125Z,10.92
2018-01-29T12:58:54.061Z,10.94
2018-01-29T12:59:53.999Z,10.94
2018-01-29T13:00:53.937Z,10.95
2018-01-29T13:01:53.875Z,10.92
2018-01-29T13:02:53.814Z,10.77
2018-01-29T13:03:53.751Z,10.95
2018-01-29T13:04:53.689Z,10.98
2018-01-29T13:05:53.630Z,10.84
2018-01-29T13:06:53.575Z,10.86
2018-01-29T13:07:53.504Z,10.78
2018-01-29T13:08:53.442Z,10.76
2018-01-29T13:09:53.381Z,10.65
2018-01-29T13:10:53.320Z,10.76
2018-01-29T13:11:53.256Z,10.71